Time;durP1;ratioP1;P1;durP2;ratioP2;P2;SDS_P1;SDS_P2;PMS_P1;PMS_P2;Temp;Humidity;BMP_temperature;BMP_pressure;BME280_temperature;BME280_humidity;BME280_pressure;Samples;Min_cycle;Max_cycle;Signal;HPM_P1;HPM_P2
2022/09/03 00:01:07;;;;;;;7.33;3.10;;;;;;;16.06;39.96;100975.18;1775634;79;21097;-63
2022/09/03 00:03:47;;;;;;;7.10;3.10;;;;;;;16.05;39.99;100977.63;1789571;80;20999;-63
2022/09/03 00:06:21;;;;;;;4.55;2.95;;;;;;;16.05;39.98;100980.40;1774905;80;21090;-63
2022/09/03 00:09:07;;;;;;;6.28;3.30;;;;;;;16.06;39.91;100978.48;1812359;78;21399;-63
2022/09/03 00:12:03;;;;;;;5.28;3.00;;;;;;;16.04;39.89;100988.38;1810806;78;20976;-62
2022/09/03 00:14:49;;;;;;;4.42;2.72;;;;;;;16.03;39.92;100983.06;1794730;78;21023;-63
2022/09/03 00:17:22;;;;;;;4.78;2.70;;;;;;;16.05;39.95;100980.93;1814094;78;21562;-64
2022/09/03 00:20:09;;;;;;;5.28;2.83;;;;;;;16.04;40.02;100985.61;1766069;81;21034;-64
2022/09/03 00:22:46;;;;;;;5.90;2.87;;;;;;;16.05;40.04;100987.31;1808516;78;21000;-64
2022/09/03 00:25:21;;;;;;;6.60;2.98;;;;;;;16.07;40.06;100986.55;1778077;80;21447;-64
2022/09/03 00:27:56;;;;;;;5.97;3.00;;;;;;;16.06;39.99;100984.02;1789017;80;21439;-63
2022/09/03 00:30:26;;;;;;;6.15;2.80;;;;;;;16.03;40.04;100986.68;1789464;80;21010;-63
2022/09/03 00:33:09;;;;;;;5.58;2.83;;;;;;;16.02;40.04;100989.13;1789272;80;20979;-64
2022/09/03 00:36:03;;;;;;;8.68;3.40;;;;;;;16.01;40.11;100987.44;1784890;80;21086;-64
2022/09/03 00:38:32;;;;;;;6.10;2.92;;;;;;;15.98;40.24;100983.72;1753123;78;21031;-64
2022/09/03 00:41:10;;;;;;;5.37;2.90;;;;;;;15.97;40.31;100990.32;1823434;78;21039;-64
2022/09/03 00:44:01;;;;;;;5.58;3.00;;;;;;;15.96;40.44;100991.92;1814737;78;20988;-63
2022/09/03 00:46:45;;;;;;;6.12;3.17;;;;;;;15.95;40.51;100983.31;1779026;80;21530;-64
2022/09/03 00:49:40;;;;;;;4.22;2.72;;;;;;;15.95;40.56;100979.17;1784943;80;21511;-63
2022/09/03 00:52:24;;;;;;;6.75;2.95;;;;;;;15.95;40.63;100983.31;1789038;80;21011;-64
2022/09/03 00:55:20;;;;;;;4.25;2.80;;;;;;;15.96;40.58;100983.63;1785744;79;21023;-63
2022/09/03 00:58:12;;;;;;;6.17;2.83;;;;;;;15.95;40.55;100984.16;1760405;81;21039;-64
2022/09/03 01:00:44;;;;;;;5.35;2.90;;;;;;;15.94;40.60;100983.84;1762397;80;21058;-64
2022/09/03 01:03:33;;;;;;;5.30;3.08;;;;;;;15.93;40.64;100989.06;1769697;80;21035;-63
2022/09/03 01:06:24;;;;;;;3.77;2.37;;;;;;;15.91;40.66;100987.05;1721038;79;21023;-64
2022/09/03 01:09:36;;;;;;;5.33;2.72;;;;;;;15.91;40.80;100980.14;1782151;80;21022;-64
2022/09/03 01:12:31;;;;;;;5.08;2.90;;;;;;;15.90;40.76;100988.12;1816177;78;21012;-63
2022/09/03 01:15:17;;;;;;;4.85;2.90;;;;;;;15.90;40.86;100988.65;1823906;78;20985;-62
2022/09/03 01:18:08;;;;;;;5.15;2.60;;;;;;;15.91;40.91;100987.05;1785356;79;21513;-63
2022/09/03 01:21:10;;;;;;;5.47;2.72;;;;;;;15.88;40.90;100981.11;1823157;78;21007;-62
2022/09/03 01:24:12;;;;;;;5.30;2.75;;;;;;;15.87;40.92;100980.27;1804255;78;21019;-62
2022/09/03 01:27:15;;;;;;;6.97;3.50;;;;;;;15.88;40.99;100987.48;1778408;80;21054;-63
2022/09/03 01:30:09;;;;;;;5.53;3.08;;;;;;;15.87;41.02;100987.70;1771714;80;21042;-63
2022/09/03 01:33:13;;;;;;;5.90;3.10;;;;;;;15.83;41.08;100995.05;1794658;78;21719;-63
2022/09/03 01:35:46;;;;;;;5.00;2.60;;;;;;;15.82;41.21;100992.50;1799778;78;21031;-63
2022/09/03 01:38:50;;;;;;;8.33;3.02;;;;;;;15.81;41.32;100985.28;1818412;78;21416;-64
2022/09/03 01:44:47;;;;;;;5.55;2.72;;;;;;;15.84;41.49;100988.45;1816748;78;21051;-62
2022/09/03 01:47:50;;;;;;;5.55;2.98;;;;;;;15.84;41.55;100987.61;1802642;79;21062;-63
2022/09/03 01:50:58;;;;;;;7.08;3.02;;;;;;;15.84;41.56;100993.13;1807905;78;21048;-65
2022/09/03 01:53:51;;;;;;;5.33;2.90;;;;;;;15.83;41.50;100995.05;1807155;79;21459;-65
2022/09/03 01:56:44;;;;;;;10.40;3.55;;;;;;;15.79;41.60;100996.55;1778168;80;21081;-63
2022/09/03 01:59:32;;;;;;;5.80;3.08;;;;;;;15.74;41.68;100988.06;1774942;80;21015;-64
2022/09/03 02:02:21;;;;;;;5.42;3.27;;;;;;;15.74;41.82;100988.59;1766477;80;21458;-64
2022/09/03 02:05:23;;;;;;;7.25;3.00;;;;;;;15.72;41.85;100989.34;1770768;80;21011;-63
2022/09/03 02:08:04;;;;;;;6.30;3.12;;;;;;;15.71;41.88;100987.65;1753384;81;21431;-65
2022/09/03 02:10:50;;;;;;;6.75;2.98;;;;;;;15.70;42.05;100984.04;1763650;81;21063;-63
2022/09/03 02:13:24;;;;;;;9.73;3.55;;;;;;;15.68;42.17;100985.33;1777393;80;21387;-64
2022/09/03 02:15:59;;;;;;;11.12;3.47;;;;;;;15.66;42.26;100994.36;1788765;80;21026;-63
2022/09/03 02:18:32;;;;;;;7.50;3.50;;;;;;;15.59;42.58;100990.20;1776457;79;21087;-63
2022/09/03 02:21:02;;;;;;;7.40;2.92;;;;;;;15.57;43.00;100990.91;1789366;80;21078;-63
2022/09/03 02:23:32;;;;;;;6.95;3.42;;;;;;;15.58;43.26;100989.03;1786931;80;21047;-64
2022/09/03 02:26:02;;;;;;;7.92;3.20;;;;;;;15.57;43.40;100995.06;1726950;81;21023;-63
2022/09/03 02:28:32;;;;;;;9.75;4.00;;;;;;;15.54;43.63;100992.20;1789769;79;21042;-62
2022/09/03 02:31:02;;;;;;;7.90;3.60;;;;;;;15.52;43.80;100994.86;1789400;80;21010;-63
2022/09/03 02:33:36;;;;;;;10.45;3.50;;;;;;;15.52;43.95;100989.34;1786630;80;21513;-63
2022/09/03 02:36:08;;;;;;;8.75;3.35;;;;;;;15.52;44.06;100987.42;1772709;80;21419;-62
2022/09/03 02:38:38;;;;;;;6.72;3.47;;;;;;;15.50;44.12;100985.41;1783457;80;20980;-63
2022/09/03 02:41:07;;;;;;;6.95;3.50;;;;;;;15.48;43.96;100987.54;1773578;80;20992;-64
2022/09/03 02:43:43;;;;;;;6.45;3.30;;;;;;;15.49;43.80;100990.62;1785787;80;21062;-64
2022/09/03 02:46:17;;;;;;;6.85;3.52;;;;;;;15.50;43.98;100990.94;1775286;80;21026;-63
2022/09/03 02:48:47;;;;;;;5.67;3.27;;;;;;;15.51;44.15;100985.72;1786278;80;21046;-64
2022/09/03 02:51:16;;;;;;;5.60;3.30;;;;;;;15.52;44.21;100992.09;1786615;80;21098;-62
2022/09/03 02:53:45;;;;;;;8.25;3.45;;;;;;;15.51;44.25;100994.02;1789416;80;20983;-63
2022/09/03 02:56:14;;;;;;;8.28;3.37;;;;;;;15.51;44.33;100994.02;1795079;78;21027;-63
2022/09/03 02:58:44;;;;;;;7.53;3.47;;;;;;;15.53;44.50;100998.79;1836472;78;20996;-63
2022/09/03 03:01:13;;;;;;;9.10;3.67;;;;;;;15.52;44.58;100990.19;1812038;78;20991;-63
2022/09/03 03:03:45;;;;;;;5.67;3.08;;;;;;;15.50;44.52;100995.08;1812681;78;21069;-63
2022/09/03 03:06:14;;;;;;;7.75;3.77;;;;;;;15.46;44.55;100986.91;1799087;78;20995;-64
2022/09/03 03:08:44;;;;;;;9.28;3.90;;;;;;;15.44;43.95;100991.80;1797052;78;20979;-64
2022/09/03 03:11:17;;;;;;;10.78;4.40;;;;;;;15.46;44.14;100992.42;1796600;78;22344;-63
2022/09/03 03:13:46;;;;;;;7.00;3.87;;;;;;;15.48;44.00;100993.06;1793632;80;21006;-64
2022/09/03 03:16:16;;;;;;;6.45;3.70;;;;;;;15.50;44.35;100995.08;1815279;78;21122;-63
2022/09/03 03:18:46;;;;;;;6.70;4.03;;;;;;;15.48;44.48;100994.44;1813046;78;21051;-64
2022/09/03 03:21:16;;;;;;;8.05;3.90;;;;;;;15.46;44.67;100993.81;1816403;78;20983;-63
2022/09/03 03:23:47;;;;;;;7.35;3.75;;;;;;;15.45;44.89;101002.31;1796258;78;21054;-62
2022/09/03 03:26:19;;;;;;;10.98;4.10;;;;;;;15.45;45.06;101003.69;1822914;78;21022;-63
2022/09/03 03:28:50;;;;;;;9.33;4.10;;;;;;;15.45;45.15;101007.30;1806549;78;21470;-63
2022/09/03 03:31:20;;;;;;;6.62;3.83;;;;;;;15.48;45.24;101012.92;1799943;78;21034;-65
2022/09/03 03:33:55;;;;;;;6.40;3.58;;;;;;;15.47;45.37;101022.28;1821936;78;21018;-63
2022/09/03 03:36:27;;;;;;;7.17;3.70;;;;;;;15.44;44.82;101011.13;1835269;78;21481;-63
2022/09/03 03:38:57;;;;;;;8.33;3.30;;;;;;;15.43;44.38;101016.33;1792551;80;21481;-63
2022/09/03 03:41:32;;;;;;;6.45;3.40;;;;;;;15.46;44.07;101020.58;1791835;78;21018;-63
2022/09/03 03:44:04;;;;;;;7.45;3.72;;;;;;;15.43;44.09;101015.48;1815203;78;21082;-63
2022/09/03 03:46:38;;;;;;;8.48;3.77;;;;;;;15.42;44.06;101016.02;1725919;81;21088;-63
2022/09/03 03:49:09;;;;;;;8.40;3.95;;;;;;;15.42;44.00;101021.54;1752249;81;21062;-64
2022/09/03 03:51:40;;;;;;;9.90;4.10;;;;;;;15.42;43.87;101018.78;1717190;81;21062;-64
2022/09/03 03:54:09;;;;;;;5.90;3.22;;;;;;;15.39;43.93;101019.20;1714124;83;21078;-63
2022/09/03 03:56:41;;;;;;;8.10;4.10;;;;;;;15.39;43.96;101021.97;1755008;81;21524;-63
2022/09/03 03:59:10;;;;;;;8.63;3.55;;;;;;;15.39;43.96;101016.45;1766559;81;21015;-63
2022/09/03 04:01:43;;;;;;;7.40;3.80;;;;;;;15.38;43.87;101016.66;1744858;81;21150;-64
2022/09/03 04:04:13;;;;;;;7.00;3.83;;;;;;;15.36;43.91;101018.25;1783426;78;21031;-62
2022/09/03 04:06:43;;;;;;;7.00;3.70;;;;;;;15.34;43.88;101020.38;1809394;78;21051;-63
2022/09/03 04:09:13;;;;;;;7.70;3.83;;;;;;;15.34;43.90;101021.77;1835156;78;21514;-63
2022/09/03 04:11:43;;;;;;;7.15;3.67;;;;;;;15.37;43.94;101025.48;1830295;78;20980;-63
2022/09/03 04:14:13;;;;;;;7.05;3.62;;;;;;;15.41;43.98;101042.47;1795170;79;21058;-64
2022/09/03 04:16:42;;;;;;;7.85;3.90;;;;;;;15.44;44.14;101045.65;1785505;80;21022;-63
2022/09/03 04:19:11;;;;;;;6.58;3.50;;;;;;;15.47;44.33;101047.98;1794392;79;21492;-63
2022/09/03 04:21:41;;;;;;;7.42;3.90;;;;;;;15.50;44.59;101046.70;1793911;80;21105;-62
2022/09/03 04:24:11;;;;;;;7.92;3.90;;;;;;;15.48;44.71;101053.83;1797452;80;21034;-66
2022/09/03 04:26:40;;;;;;;10.13;4.50;;;;;;;15.48;45.03;101055.73;1797652;80;21014;-63
2022/09/03 04:29:10;;;;;;;8.63;4.00;;;;;;;15.49;45.32;101056.05;1797785;80;21011;-64
2022/09/03 04:32:51;;;;;;;8.98;3.98;;;;;;;15.47;45.37;101046.60;1799285;79;21366;-63
2022/09/03 04:34:12;;;;;;;9.40;3.90;;;;;;;15.44;45.25;101044.80;1790974;80;20999;-65
2022/09/03 04:36:42;;;;;;;10.85;4.12;;;;;;;15.41;45.33;101047.45;1797268;80;22230;-63
2022/09/03 04:39:11;;;;;;;8.03;3.92;;;;;;;15.42;45.26;101046.39;1798438;80;21072;-64
2022/09/03 04:41:40;;;;;;;10.85;3.90;;;;;;;15.45;44.86;101039.06;1794899;80;21046;-63
2022/09/03 04:44:09;;;;;;;9.25;3.90;;;;;;;15.45;44.59;101044.59;1797213;80;21500;-63
2022/09/03 04:46:39;;;;;;;7.75;3.30;;;;;;;15.47;44.53;101049.89;1797303;80;21014;-64
2022/09/03 04:49:09;;;;;;;8.38;3.80;;;;;;;15.48;44.58;101044.69;1798583;80;21022;-64
2022/09/03 04:51:38;;;;;;;10.03;3.80;;;;;;;15.51;44.57;101035.98;1794100;79;21046;-63
2022/09/03 04:54:09;;;;;;;7.00;3.83;;;;;;;15.53;44.57;101039.38;1797300;80;21528;-62
2022/09/03 04:56:39;;;;;;;11.85;4.55;;;;;;;15.55;44.50;101038.09;1766411;78;21039;-62
2022/09/03 04:59:09;;;;;;;9.18;3.70;;;;;;;15.50;44.66;101039.27;1807459;78;21031;-64
2022/09/03 05:01:38;;;;;;;6.90;3.50;;;;;;;15.47;44.92;101040.23;1792844;78;21046;-62
2022/09/03 05:04:07;;;;;;;10.50;3.85;;;;;;;15.43;44.94;101041.19;1796078;78;21515;-63
2022/09/03 05:06:37;;;;;;;9.63;4.72;;;;;;;15.45;45.34;101044.59;1794375;78;21016;-66
2022/09/03 05:09:07;;;;;;;7.65;3.85;;;;;;;15.47;45.53;101045.22;1810010;78;21007;-66
2022/09/03 05:11:36;;;;;;;5.70;3.25;;;;;;;15.48;45.34;101046.07;1809528;78;21455;-64
2022/09/03 05:14:11;;;;;;;7.33;3.55;;;;;;;15.50;45.10;101047.55;1797458;78;21175;-63
2022/09/03 05:16:39;;;;;;;7.90;3.30;;;;;;;15.53;44.88;101036.61;1816631;78;21485;-63
2022/09/03 05:19:09;;;;;;;9.30;3.25;;;;;;;15.52;44.88;101040.44;1794791;80;21042;-64
2022/09/03 05:21:39;;;;;;;4.80;3.05;;;;;;;15.50;45.11;101032.36;1793748;78;21018;-63
2022/09/03 05:24:10;;;;;;;5.22;2.80;;;;;;;15.54;44.84;101036.92;1781992;78;21018;-63
2022/09/03 05:26:40;;;;;;;5.00;2.80;;;;;;;15.58;44.49;101032.70;1797310;78;21003;-64
2022/09/03 05:29:10;;;;;;;29.23;15.88;;;;;;;15.59;44.44;101034.40;1790009;78;20987;-64
2022/09/03 05:31:41;;;;;;;8.38;4.25;;;;;;;15.63;44.66;101037.61;1821899;78;21007;-64
2022/09/03 05:34:11;;;;;;;7.65;3.70;;;;;;;15.66;45.02;101034.42;1816822;78;21038;-65
2022/09/03 05:36:43;;;;;;;7.08;3.30;;;;;;;15.67;45.38;101034.73;1831552;78;21019;-64
2022/09/03 05:39:13;;;;;;;8.73;3.62;;;;;;;15.68;45.46;101037.81;1783181;78;21081;-63
2022/09/03 05:41:42;;;;;;;8.20;3.52;;;;;;;15.67;45.46;101036.97;1811904;78;21027;-63
2022/09/03 05:44:13;;;;;;;10.60;3.62;;;;;;;15.70;45.44;101028.78;1803977;78;21054;-64
2022/09/03 05:46:43;;;;;;;6.42;3.37;;;;;;;15.75;45.24;101040.03;1806716;78;21077;-64
2022/09/03 05:49:12;;;;;;;6.35;3.30;;;;;;;15.77;45.04;101033.76;1797996;78;21066;-64
2022/09/03 05:51:42;;;;;;;5.95;3.15;;;;;;;15.81;44.93;101040.55;1770847;80;21089;-64
2022/09/03 05:54:11;;;;;;;7.35;3.17;;;;;;;15.86;44.74;101040.75;1822132;78;20986;-63
2022/09/03 05:56:41;;;;;;;6.53;3.05;;;;;;;15.88;44.52;101042.76;1811230;78;21074;-65
2022/09/03 05:59:12;;;;;;;8.63;3.25;;;;;;;15.89;44.58;101049.98;1793078;78;21430;-64
2022/09/03 06:01:44;;;;;;;7.80;3.12;;;;;;;15.95;44.64;101053.27;1795374;78;21015;-65
2022/09/03 06:04:15;;;;;;;6.58;3.80;;;;;;;16.01;44.58;101049.63;1814569;78;21453;-64
2022/09/03 06:06:46;;;;;;;6.12;3.22;;;;;;;16.00;44.46;101038.26;1808392;78;20984;-66
2022/09/03 06:09:19;;;;;;;4.90;3.08;;;;;;;16.01;44.52;101041.87;1798536;78;20999;-64
2022/09/03 06:11:50;;;;;;;9.75;3.58;;;;;;;16.04;44.53;101036.75;1792490;78;21014;-64
2022/09/03 06:14:22;;;;;;;11.22;3.20;;;;;;;16.06;44.43;101033.23;1812344;78;21015;-64
2022/09/03 06:16:55;;;;;;;6.92;3.02;;;;;;;16.12;44.41;101030.13;1793227;78;20999;-66
2022/09/03 06:19:26;;;;;;;7.47;3.33;;;;;;;16.18;44.28;101019.58;1794662;78;21174;-64
2022/09/03 06:21:56;;;;;;;8.50;3.22;;;;;;;16.27;44.15;101022.97;1829499;78;20975;-65
2022/09/03 06:24:26;;;;;;;8.88;3.15;;;;;;;16.34;44.07;101032.09;1803773;78;21074;-64
2022/09/03 06:26:58;;;;;;;7.45;3.12;;;;;;;16.37;44.00;101032.50;1807305;78;20974;-64
2022/09/03 06:29:29;;;;;;;8.18;3.10;;;;;;;16.43;43.85;101026.61;1798620;78;21095;-64
2022/09/03 06:32:00;;;;;;;8.23;3.20;;;;;;;16.43;43.86;101034.91;1810354;78;20998;-65
2022/09/03 06:34:32;;;;;;;8.88;3.27;;;;;;;16.46;43.96;101028.41;1797138;78;21046;-65
2022/09/03 06:37:02;;;;;;;7.45;3.30;;;;;;;16.54;43.82;101030.06;1796612;78;21089;-65
2022/09/03 06:39:32;;;;;;;5.62;3.40;;;;;;;16.63;43.68;101036.19;1813690;78;21077;-64
2022/09/03 06:42:01;;;;;;;9.55;3.58;;;;;;;16.63;43.66;101035.65;1829056;78;21391;-65
2022/09/03 06:44:33;;;;;;;9.40;3.47;;;;;;;16.65;43.75;101038.19;1801947;78;21018;-64
2022/09/03 06:47:02;;;;;;;10.43;4.35;;;;;;;16.72;43.75;101027.43;1806938;78;21493;-63
2022/09/03 06:49:33;;;;;;;9.43;4.17;;;;;;;16.75;43.54;101029.75;1795034;78;21419;-63
2022/09/03 06:52:02;;;;;;;6.97;3.75;;;;;;;16.84;43.48;101027.56;1830078;78;21038;-66
2022/09/03 06:54:31;;;;;;;12.35;4.08;;;;;;;16.96;43.27;101032.72;1802393;78;21070;-66
2022/09/03 06:57:01;;;;;;;10.25;3.87;;;;;;;17.05;43.13;101038.83;1796702;78;21682;-63
2022/09/03 06:59:30;;;;;;;13.68;4.58;;;;;;;17.16;43.04;101042.25;1764841;80;21066;-65
2022/09/03 07:02:02;;;;;;;10.63;4.10;;;;;;;17.24;42.89;101026.74;1768319;81;21007;-64
2022/09/03 07:04:33;;;;;;;8.95;3.58;;;;;;;17.30;42.72;101034.14;1765710;81;21083;-64
2022/09/03 07:07:11;;;;;;;12.15;4.08;;;;;;;17.35;42.80;101032.08;1774715;81;21722;-65
2022/09/03 07:09:37;;;;;;;9.93;3.95;;;;;;;17.44;42.78;101027.41;1762849;81;21483;-64
2022/09/03 07:12:09;;;;;;;12.73;3.85;;;;;;;17.61;42.34;101031.01;1761730;81;21007;-65
2022/09/03 07:14:39;;;;;;;11.95;4.53;;;;;;;17.64;42.42;101028.62;1773094;80;21019;-64
2022/09/03 07:17:11;;;;;;;6.50;3.42;;;;;;;17.70;42.44;101029.67;1775241;81;21062;-65
2022/09/03 07:19:41;;;;;;;13.22;3.75;;;;;;;17.78;42.22;101031.29;1774441;81;21011;-66
2022/09/03 07:22:11;;;;;;;9.60;3.45;;;;;;;17.80;41.95;101029.98;1775409;81;21039;-66
2022/09/03 07:24:45;;;;;;;10.70;4.00;;;;;;;17.85;42.00;101041.77;1766296;81;21054;-65
2022/09/03 07:27:12;;;;;;;6.67;3.42;;;;;;;17.83;41.72;101035.06;1775638;81;21063;-66
2022/09/03 07:29:44;;;;;;;7.10;3.58;;;;;;;17.75;41.59;101043.69;1775889;81;21007;-64
2022/09/03 07:32:14;;;;;;;6.28;4.03;;;;;;;17.65;41.85;101040.56;1775967;81;21009;-67
2022/09/03 07:34:44;;;;;;;12.37;4.20;;;;;;;17.63;41.93;101039.94;1774727;80;21035;-64
2022/09/03 07:37:14;;;;;;;8.60;4.10;;;;;;;17.66;41.98;101035.33;1759872;80;21070;-67
2022/09/03 07:39:43;;;;;;;5.72;3.35;;;;;;;17.76;41.94;101045.38;1771310;81;21055;-65
2022/09/03 07:42:14;;;;;;;8.55;3.72;;;;;;;17.84;42.00;101043.70;1756890;81;21054;-65
2022/09/03 07:44:43;;;;;;;7.62;3.55;;;;;;;17.92;41.84;101044.78;1775117;81;21027;-64
2022/09/03 07:47:13;;;;;;;7.97;3.52;;;;;;;18.00;41.83;101041.70;1775512;81;21058;-64
2022/09/03 07:49:47;;;;;;;10.35;4.17;;;;;;;18.09;41.54;101042.78;1755788;80;21050;-66
2022/09/03 07:52:17;;;;;;;5.47;3.65;;;;;;;18.22;41.55;101032.39;1771847;79;21094;-66
2022/09/03 07:54:46;;;;;;;13.70;3.85;;;;;;;18.43;41.65;101037.14;1757677;79;21051;-66
2022/09/03 07:57:15;;;;;;;13.62;4.20;;;;;;;18.59;41.48;101030.40;1778451;80;21059;-64
2022/09/03 07:59:44;;;;;;;10.50;5.00;;;;;;;18.73;41.42;101029.70;1780341;80;20988;-66
2022/09/03 08:02:14;;;;;;;11.57;5.05;;;;;;;18.91;41.12;101033.83;1825278;78;21026;-64
2022/09/03 08:04:44;;;;;;;8.40;4.03;;;;;;;19.04;40.86;101032.77;1822902;78;21071;-65
2022/09/03 08:07:14;;;;;;;11.33;4.45;;;;;;;19.13;40.57;101029.95;1812371;78;21015;-69
2022/09/03 08:09:45;;;;;;;7.05;3.92;;;;;;;19.21;39.92;101025.98;1825169;78;21494;-64
2022/09/03 08:12:16;;;;;;;8.48;4.15;;;;;;;19.28;39.60;101030.88;1813052;78;20999;-66
2022/09/03 08:14:47;;;;;;;8.68;4.05;;;;;;;19.29;39.52;101033.42;1831231;78;21416;-67
2022/09/03 08:17:19;;;;;;;10.32;4.30;;;;;;;19.25;39.58;101036.38;1806657;78;21051;-65
2022/09/03 08:19:48;;;;;;;8.30;3.85;;;;;;;19.22;39.71;101036.01;1827459;78;20980;-63
2022/09/03 08:22:21;;;;;;;5.92;3.37;;;;;;;19.25;39.84;101026.65;1810444;78;20987;-65
2022/09/03 08:24:49;;;;;;;8.05;4.00;;;;;;;19.33;39.61;101028.23;1794651;78;20996;-66
2022/09/03 08:27:22;;;;;;;14.60;8.98;;;;;;;19.40;39.39;101029.50;1823398;78;21216;-67
2022/09/03 08:29:49;;;;;;;8.80;4.80;;;;;;;19.47;39.38;101027.45;1823008;78;21441;-65
2022/09/03 08:32:19;;;;;;;8.68;4.30;;;;;;;19.47;39.05;101027.45;1822026;78;21407;-66
2022/09/03 08:34:51;;;;;;;7.40;3.77;;;;;;;19.45;39.05;101031.02;1787051;80;21014;-66
2022/09/03 08:37:21;;;;;;;7.10;3.85;;;;;;;19.43;39.08;101034.58;1787756;80;21031;-68
2022/09/03 08:39:51;;;;;;;9.48;3.98;;;;;;;19.37;38.89;101027.20;1772912;80;21402;-64
2022/09/03 08:42:43;;;;;;;8.73;4.17;;;;;;;19.29;39.23;101028.41;1781038;80;21422;-63
2022/09/03 08:45:16;;;;;;;7.15;3.95;;;;;;;19.32;39.40;101023.22;1764157;80;21102;-65
2022/09/03 08:47:53;;;;;;;5.40;3.50;;;;;;;19.31;39.46;101018.75;1779183;80;21596;-67
2022/09/03 08:50:33;;;;;;;8.08;3.92;;;;;;;19.33;39.19;101016.57;1773173;80;21039;-64
2022/09/03 08:53:41;;;;;;;11.10;4.20;;;;;;;19.25;39.09;101010.52;1761941;80;21078;-65
2022/09/03 08:56:19;;;;;;;9.15;4.37;;;;;;;19.16;39.23;101008.64;1763547;80;21078;-64
2022/09/03 08:58:49;;;;;;;7.85;3.85;;;;;;;19.19;39.31;100997.59;1826311;78;21051;-64
2022/09/03 09:01:58;;;;;;;7.37;3.87;;;;;;;19.22;39.53;100998.50;1824565;78;21023;-65
2022/09/03 09:04:48;;;;;;;9.53;3.45;;;;;;;19.34;39.23;101000.74;1828075;78;21000;-67
2022/09/03 09:07:37;;;;;;;11.33;3.77;;;;;;;19.50;38.66;101001.95;1822716;78;21407;-66
2022/09/03 09:10:32;;;;;;;8.33;3.87;;;;;;;19.59;38.41;100997.78;1825208;78;21447;-61
2022/09/03 09:13:15;;;;;;;8.00;3.00;;;;;;;19.66;38.32;100990.16;1815733;78;21070;-63
2022/09/03 09:16:11;;;;;;;6.10;2.80;;;;;;;19.73;37.65;100990.88;1826135;78;21039;-61
2022/09/03 09:19:14;;;;;;;3.33;2.30;;;;;;;19.78;36.87;100994.31;1825120;78;21046;-62
2022/09/03 09:21:58;;;;;;;4.55;2.55;;;;;;;19.78;36.26;100996.55;1826170;78;20988;-64
2022/09/03 09:24:38;;;;;;;5.10;2.58;;;;;;;19.73;36.11;100989.48;1799425;78;21035;-63
2022/09/03 09:27:08;;;;;;;5.03;2.58;;;;;;;19.67;36.33;100990.46;1793193;79;21467;-67
2022/09/03 09:29:39;;;;;;;6.33;2.92;;;;;;;19.68;36.53;100986.59;1814053;78;20972;-67
2022/09/03 09:32:10;;;;;;;6.22;2.70;;;;;;;19.74;36.27;100998.13;1817569;78;20987;-69
2022/09/03 09:34:43;;;;;;;8.03;2.98;;;;;;;19.78;36.18;100999.33;1820375;78;21110;-68
2022/09/03 09:37:16;;;;;;;7.72;3.10;;;;;;;19.76;36.02;101005.69;1807427;78;21412;-67
2022/09/03 09:39:57;;;;;;;6.92;2.70;;;;;;;19.73;36.39;100998.38;1826413;78;21012;-67
2022/09/03 09:42:29;;;;;;;6.87;2.52;;;;;;;19.77;36.34;101007.92;1813543;78;21043;-67
2022/09/03 09:45:03;;;;;;;3.62;2.37;;;;;;;19.71;35.73;100993.60;1824340;78;20976;-67
2022/09/03 09:47:37;;;;;;;11.38;3.10;;;;;;;19.66;35.83;100990.70;1821544;78;21035;-69
2022/09/03 09:50:20;;;;;;;10.70;3.00;;;;;;;19.68;36.06;101006.60;1824888;78;21019;-68
2022/09/03 09:53:13;;;;;;;6.95;2.50;;;;;;;19.73;36.02;101009.50;1818984;78;21035;-68
2022/09/03 09:55:54;;;;;;;7.90;2.90;;;;;;;19.82;35.87;101001.92;1821020;78;21023;-65
2022/09/03 09:58:27;;;;;;;6.62;2.77;;;;;;;19.83;35.61;100999.45;1830915;77;21039;-64
2022/09/03 10:01:04;;;;;;;6.55;3.12;;;;;;;19.84;35.38;100999.75;1823555;78;21419;-68
2022/09/03 10:03:34;;;;;;;;;;;;;;;19.90;35.57;101002.09;1837575;78;20995;-67
2022/09/03 10:09:10;;;;;;;6.05;3.58;;;;;;;19.91;35.92;101001.84;1818097;78;20971;-66
2022/09/03 10:11:44;;;;;;;6.60;3.70;;;;;;;19.95;35.68;101002.20;1825531;78;20999;-66
2022/09/03 10:14:21;;;;;;;6.42;2.80;;;;;;;19.97;35.74;100993.07;1824263;78;21490;-67
2022/09/03 10:16:56;;;;;;;4.03;2.00;;;;;;;19.98;35.14;100996.70;1823558;78;21461;-65
2022/09/03 10:20:26;;;;;;;3.20;2.10;;;;;;;19.93;34.99;101002.45;1824032;78;21023;-67
2022/09/03 10:22:26;;;;;;;3.20;2.00;;;;;;;19.91;34.84;101000.45;1794622;78;21039;-76
2022/09/03 10:25:00;;;;;;;5.78;2.65;;;;;;;19.85;34.73;101000.05;1826898;78;21089;-73
2022/09/03 10:27:29;;;;;;;4.83;2.58;;;;;;;19.77;34.89;100998.19;1820542;78;21007;-71
2022/09/03 10:30:00;;;;;;;5.83;2.40;;;;;;;19.71;35.15;100997.77;1825410;78;20980;-71
2022/09/03 10:33:00;;;;;;;5.25;2.52;;;;;;;19.73;35.31;100998.38;1830077;78;20991;-71
2022/09/03 10:35:39;;;;;;;4.47;2.75;;;;;;;19.73;35.29;100999.22;1822146;78;21445;-71
2022/09/03 10:38:36;;;;;;;4.80;2.30;;;;;;;19.68;35.19;100990.77;1836497;78;21003;-71
2022/09/03 10:41:28;;;;;;;7.05;2.70;;;;;;;19.58;35.38;100986.36;1818922;78;21053;-71
2022/09/03 10:44:34;;;;;;;3.92;2.72;;;;;;;19.53;35.36;100982.08;1815234;78;21435;-71
2022/09/03 10:47:14;;;;;;;3.75;2.42;;;;;;;19.41;35.60;100984.80;1808672;78;21450;-71
2022/09/03 10:50:15;;;;;;;5.65;2.85;;;;;;;19.42;35.89;100985.64;1804629;78;21074;-69
2022/09/03 10:53:12;;;;;;;6.95;3.55;;;;;;;19.51;35.90;100987.00;1810466;78;20998;-73
2022/09/03 10:56:03;;;;;;;4.95;2.60;;;;;;;19.54;35.87;100980.98;1801582;78;21027;-72
2022/09/03 10:59:19;;;;;;;3.58;2.40;;;;;;;19.57;35.70;100971.61;1807421;78;21074;-72
2022/09/03 11:02:06;;;;;;;4.95;3.02;;;;;;;19.56;35.84;100982.98;1795707;78;20960;-71
2022/09/03 11:04:58;;;;;;;6.17;3.45;;;;;;;19.60;35.90;100971.67;1797211;78;21538;-70
2022/09/03 11:07:38;;;;;;;11.80;3.95;;;;;;;19.65;36.08;100965.38;1809755;78;21435;-71
2022/09/03 11:10:39;;;;;;;6.08;3.00;;;;;;;19.70;36.24;100969.13;1813339;78;21017;-72
2022/09/03 11:13:19;;;;;;;7.20;3.00;;;;;;;19.81;36.33;100969.64;1806125;78;21452;-71
2022/09/03 11:16:02;;;;;;;10.03;3.05;;;;;;;19.90;36.45;100972.34;1812488;78;21709;-71
2022/09/03 11:18:53;;;;;;;10.15;3.33;;;;;;;19.95;36.04;100967.44;1791955;78;21532;-72
2022/09/03 11:21:24;;;;;;;5.95;3.25;;;;;;;19.99;36.14;100967.24;1739298;81;21051;-71
2022/09/03 11:24:22;;;;;;;5.95;3.10;;;;;;;20.05;35.96;100966.80;1801296;78;21004;-72
2022/09/03 11:27:02;;;;;;;5.78;3.12;;;;;;;20.03;35.63;100960.64;1796904;78;21007;-70
2022/09/03 11:29:39;;;;;;;5.83;3.62;;;;;;;20.02;35.58;100952.00;1797211;78;21090;-71
2022/09/03 11:32:11;;;;;;;;;;;;;;;19.92;35.74;100950.69;1804221;78;21451;-70
2022/09/03 11:34:53;;;;;;;14.70;5.45;;;;;;;19.91;36.04;100951.78;1835356;78;20451;-71
2022/09/03 11:37:25;;;;;;;10.08;4.50;;;;;;;19.93;36.10;100951.53;1815488;78;21032;-72
2022/09/03 11:40:00;;;;;;;7.47;4.35;;;;;;;19.92;35.91;100954.86;1673460;82;21549;-72
2022/09/03 11:42:40;;;;;;;7.15;3.95;;;;;;;19.93;35.66;100952.92;1723931;83;21045;-71
2022/09/03 11:45:30;;;;;;;6.17;3.60;;;;;;;19.93;35.66;100953.77;1726594;83;21065;-70
2022/09/03 11:47:59;;;;;;;5.58;3.15;;;;;;;19.93;35.66;100950.99;1727191;83;21073;-71
2022/09/03 11:50:31;;;;;;;3.47;2.62;;;;;;;19.93;35.68;100938.48;1682483;83;21053;-71
2022/09/03 11:53:10;;;;;;;5.20;2.75;;;;;;;19.95;35.71;100937.68;1696061;84;21059;-71
2022/09/03 11:55:52;;;;;;;6.20;3.02;;;;;;;19.93;35.97;100930.12;1711019;82;21074;-71
2022/09/03 11:58:34;;;;;;;5.55;2.60;;;;;;;19.91;36.34;100933.70;1778842;78;21106;-71
2022/09/03 12:01:10;;;;;;;5.22;2.75;;;;;;;19.86;36.55;100934.98;1794837;79;21062;-71
2022/09/03 12:03:52;;;;;;;5.15;2.87;;;;;;;19.81;36.24;100928.47;1802158;78;21067;-68
2022/09/03 12:07:03;;;;;;;10.75;3.30;;;;;;;19.76;36.40;100929.75;1765257;80;21030;-67
2022/09/03 12:09:53;;;;;;;3.40;2.60;;;;;;;19.78;36.62;100926.19;1795585;80;21046;-68
2022/09/03 12:13:01;;;;;;;3.92;2.47;;;;;;;19.79;36.62;100921.77;1720356;80;21083;-68
2022/09/03 12:15:59;;;;;;;4.40;2.52;;;;;;;19.81;36.64;100915.41;1809207;78;21061;-68